Time;durP1;ratioP1;P1;durP2;ratioP2;P2;SDS_P1;SDS_P2;PMS_P1;PMS_P2;Temp;Humidity;BMP_temperature;BMP_pressure;BME280_temperature;BME280_humidity;BME280_pressure;Samples;Min_cycle;Max_cycle;Signal;HPM_P1;HPM_P2
2022/09/02 00:02:01;;;;;;;3.67;1.87;;;12.10;99.90;;;;;;4807536;29;20207;-74
2022/09/02 00:04:28;;;;;;;3.43;1.90;;;12.10;99.90;;;;;;4807984;29;20294;-74
2022/09/02 00:06:55;;;;;;;2.40;1.60;;;12.00;99.90;;;;;;4807744;29;20220;-73
2022/09/02 00:09:24;;;;;;;6.93;2.20;;;12.00;99.90;;;;;;4807844;29;20213;-74
2022/09/02 00:11:53;;;;;;;3.60;1.70;;;12.00;99.90;;;;;;4807400;29;20211;-74
2022/09/02 00:14:30;;;;;;;5.97;1.90;;;11.90;99.90;;;;;;4807682;29;20214;-74
2022/09/02 00:16:59;;;;;;;3.03;1.80;;;11.90;99.90;;;;;;4807896;29;20306;-73
2022/09/02 00:19:28;;;;;;;4.17;1.97;;;11.90;99.90;;;;;;4807437;29;20228;-74
2022/09/02 00:21:56;;;;;;;3.57;1.63;;;11.90;99.90;;;;;;4807724;29;20664;-74
2022/09/02 00:24:24;;;;;;;2.33;1.50;;;11.90;99.90;;;;;;4807779;29;20235;-74
2022/09/02 00:26:51;;;;;;;4.97;1.97;;;11.80;99.90;;;;;;4807571;29;20245;-74
2022/09/02 00:29:23;;;;;;;4.97;2.10;;;11.90;99.90;;;;;;4807344;29;20272;-74
2022/09/02 00:31:50;;;;;;;3.53;1.83;;;11.90;99.90;;;;;;4807700;29;20642;-73
2022/09/02 00:34:17;;;;;;;5.83;1.80;;;11.80;99.90;;;;;;4808563;29;20192;-74
2022/09/02 00:36:44;;;;;;;3.30;1.70;;;11.90;99.90;;;;;;4807458;29;20204;-74
2022/09/02 00:39:11;;;;;;;3.80;1.87;;;12.00;99.90;;;;;;4807699;29;20207;-74
2022/09/02 00:41:40;;;;;;;2.50;1.60;;;12.00;99.90;;;;;;4807045;29;20680;-74
2022/09/02 00:44:11;;;;;;;3.20;1.70;;;12.10;99.90;;;;;;4806981;29;20208;-75
2022/09/02 00:46:39;;;;;;;5.07;1.60;;;12.10;99.90;;;;;;4807143;29;20219;-75
2022/09/02 00:49:23;;;;;;;3.37;1.80;;;12.10;99.90;;;;;;4807098;29;20638;-74
2022/09/02 00:52:12;;;;;;;4.83;1.60;;;12.00;99.90;;;;;;4807067;29;20247;-75
2022/09/02 00:54:47;;;;;;;4.40;1.80;;;12.10;99.90;;;;;;4805701;29;20214;-75
2022/09/02 00:57:18;;;;;;;2.70;1.70;;;12.00;99.90;;;;;;4807153;29;20549;-75
2022/09/02 01:00:04;;;;;;;2.70;1.40;;;12.00;99.90;;;;;;4806918;29;20325;-75
2022/09/02 01:02:31;;;;;;;3.77;1.60;;;11.90;99.90;;;;;;4807036;29;20668;-76
2022/09/02 01:04:59;;;;;;;4.13;1.60;;;11.90;99.90;;;;;;4806639;29;20207;-76
2022/09/02 01:07:32;;;;;;;2.10;1.40;;;11.90;99.90;;;;;;4807990;29;20607;-76
2022/09/02 01:10:01;;;;;;;3.87;1.63;;;11.90;99.90;;;;;;4806918;29;20216;-73
2022/09/02 01:12:30;;;;;;;5.83;1.80;;;11.90;99.90;;;;;;4806738;29;20204;-74
2022/09/02 01:14:57;;;;;;;4.10;1.60;;;11.90;99.90;;;;;;4808086;29;20283;-74
2022/09/02 01:17:25;;;;;;;2.10;1.40;;;11.90;99.90;;;;;;4806815;29;20197;-74
2022/09/02 01:20:03;;;;;;;3.73;1.40;;;11.90;99.90;;;;;;4806375;29;20322;-74
2022/09/02 01:22:32;;;;;;;7.50;1.57;;;11.90;99.90;;;;;;4806803;29;20188;-76
2022/09/02 01:25:08;;;;;;;2.63;1.50;;;11.80;99.90;;;;;;4806803;29;20210;-75
2022/09/02 01:27:35;;;;;;;2.17;1.10;;;11.90;99.90;;;;;;4806459;29;20676;-76
2022/09/02 01:30:05;;;;;;;2.27;1.37;;;11.70;99.90;;;;;;4807920;29;20555;-77
2022/09/02 01:32:32;;;;;;;2.10;1.30;;;11.70;99.90;;;;;;4806311;29;20199;-76
2022/09/02 01:34:58;;;;;;;2.23;1.60;;;11.70;99.90;;;;;;4806595;29;20200;-73
2022/09/02 01:37:25;;;;;;;2.73;1.20;;;11.70;99.90;;;;;;4807430;29;20192;-72
2022/09/02 01:39:52;;;;;;;4.43;1.30;;;11.60;99.90;;;;;;4807626;29;20227;-76
2022/09/02 01:42:20;;;;;;;4.50;1.50;;;11.60;99.90;;;;;;4806029;29;20227;-72
2022/09/02 01:44:47;;;;;;;2.87;1.30;;;11.50;99.90;;;;;;4806302;29;20299;-74
2022/09/02 01:47:18;;;;;;;2.97;1.17;;;11.60;99.90;;;;;;4806154;29;21013;-73
2022/09/02 01:49:46;;;;;;;2.67;1.20;;;11.50;99.90;;;;;;4807136;29;20204;-74
2022/09/02 01:52:14;;;;;;;2.57;1.17;;;11.60;99.90;;;;;;4807036;29;20235;-75
2022/09/02 01:54:41;;;;;;;2.93;1.33;;;11.50;99.90;;;;;;4790915;29;20218;-74
2022/09/02 01:57:08;;;;;;;2.77;1.20;;;11.60;99.90;;;;;;4790713;29;20255;-76
2022/09/02 01:59:35;;;;;;;2.67;1.33;;;11.50;99.90;;;;;;4807157;29;20658;-75
2022/09/02 02:02:03;;;;;;;2.33;1.30;;;11.50;99.90;;;;;;4807263;29;20248;-73
2022/09/02 02:04:31;;;;;;;4.67;1.13;;;11.40;99.90;;;;;;4790827;29;20204;-76
2022/09/02 02:06:58;;;;;;;1.80;1.30;;;11.40;99.90;;;;;;4790257;29;20207;-76
2022/09/02 02:09:25;;;;;;;2.67;1.30;;;11.30;99.90;;;;;;4790716;29;20581;-76
2022/09/02 02:11:52;;;;;;;2.67;1.40;;;11.30;99.90;;;;;;4790596;29;20689;-75
2022/09/02 02:14:19;;;;;;;4.43;1.63;;;11.40;99.90;;;;;;4790339;29;20192;-76
2022/09/02 02:16:47;;;;;;;2.43;1.40;;;11.40;99.90;;;;;;4790568;29;20207;-76
2022/09/02 02:19:14;;;;;;;3.50;1.40;;;11.30;99.90;;;;;;4790659;29;20215;-76
2022/09/02 02:21:41;;;;;;;2.33;1.40;;;11.30;99.90;;;;;;4790334;29;20665;-77
2022/09/02 02:24:08;;;;;;;2.77;1.70;;;11.20;99.90;;;;;;4790416;29;20311;-75
2022/09/02 02:26:35;;;;;;;3.60;1.33;;;11.20;99.90;;;;;;4806696;29;20203;-76
2022/09/02 02:29:02;;;;;;;2.60;1.20;;;11.20;99.90;;;;;;4789897;29;20212;-76
2022/09/02 02:31:31;;;;;;;3.10;1.30;;;11.10;99.90;;;;;;4790560;29;20289;-76
2022/09/02 02:33:58;;;;;;;2.70;1.47;;;11.00;99.90;;;;;;4790303;29;20211;-77
2022/09/02 02:36:25;;;;;;;4.73;1.40;;;11.00;99.90;;;;;;4806550;29;20238;-78
2022/09/02 02:38:52;;;;;;;3.77;1.30;;;11.00;99.90;;;;;;4790336;29;20211;-78
2022/09/02 02:41:19;;;;;;;2.07;1.33;;;10.90;99.90;;;;;;4790062;29;20267;-76
2022/09/02 02:43:46;;;;;;;1.97;1.23;;;10.90;99.90;;;;;;4806167;29;20192;-79
2022/09/02 02:46:14;;;;;;;2.50;1.20;;;10.90;99.90;;;;;;4806595;29;20212;-77
2022/09/02 02:48:41;;;;;;;2.73;1.40;;;10.90;99.90;;;;;;4790336;29;20663;-74
2022/09/02 02:51:08;;;;;;;1.90;1.30;;;10.80;99.90;;;;;;4795651;29;20236;-77
2022/09/02 02:53:35;;;;;;;1.80;1.10;;;10.80;99.90;;;;;;4804883;29;20216;-76
2022/09/02 02:56:04;;;;;;;2.53;1.20;;;10.80;99.90;;;;;;4805474;29;20254;-75
2022/09/02 02:58:31;;;;;;;1.97;1.13;;;10.70;99.90;;;;;;4804809;29;20298;-75
2022/09/02 03:00:59;;;;;;;2.60;1.23;;;10.70;99.90;;;;;;4804934;29;20255;-74
2022/09/02 03:03:26;;;;;;;2.33;1.27;;;10.70;99.90;;;;;;4806369;29;20291;-78
2022/09/02 03:05:53;;;;;;;3.50;1.60;;;10.70;99.90;;;;;;4805020;29;20207;-76
2022/09/02 03:08:21;;;;;;;6.43;1.90;;;10.70;99.90;;;;;;4806043;29;20232;-77
2022/09/02 03:10:53;;;;;;;3.27;1.50;;;10.70;99.90;;;;;;4804808;29;20211;-76
2022/09/02 03:13:25;;;;;;;3.13;1.40;;;10.70;99.90;;;;;;4804438;29;20211;-77
2022/09/02 03:15:54;;;;;;;3.77;1.40;;;10.60;99.90;;;;;;4804611;29;20275;-73
2022/09/02 03:18:22;;;;;;;3.03;1.40;;;10.60;99.90;;;;;;4805630;29;20561;-76
2022/09/02 03:20:49;;;;;;;2.70;1.30;;;10.60;99.90;;;;;;4804438;29;20241;-76
2022/09/02 03:23:17;;;;;;;2.63;1.20;;;10.60;99.90;;;;;;4805718;29;20227;-75
2022/09/02 03:25:45;;;;;;;3.17;1.33;;;10.60;99.90;;;;;;4789730;29;20219;-74
2022/09/02 03:28:12;;;;;;;3.53;1.20;;;10.60;99.90;;;;;;4804597;29;20209;-76
2022/09/02 03:30:40;;;;;;;2.63;1.30;;;10.50;99.90;;;;;;4804752;29;20314;-74
2022/09/02 03:33:07;;;;;;;5.43;1.33;;;10.40;99.90;;;;;;4805518;29;20213;-76
2022/09/02 03:35:39;;;;;;;2.57;1.50;;;10.40;99.90;;;;;;4804593;29;20227;-75
2022/09/02 03:38:06;;;;;;;6.83;1.73;;;10.40;99.90;;;;;;4804686;29;20291;-75
2022/09/02 03:40:33;;;;;;;5.47;1.60;;;10.40;99.90;;;;;;4804156;29;20239;-73
2022/09/02 03:43:01;;;;;;;5.13;1.70;;;10.40;99.90;;;;;;4804398;29;20199;-74
2022/09/02 03:45:28;;;;;;;3.80;1.70;;;10.40;99.90;;;;;;4804627;29;20550;-74
2022/09/02 03:47:57;;;;;;;2.30;1.70;;;10.30;99.90;;;;;;4805803;29;20195;-74
2022/09/02 03:50:30;;;;;;;3.43;1.30;;;10.30;99.90;;;;;;4804329;29;20355;-76
2022/09/02 03:52:59;;;;;;;4.40;1.50;;;10.20;99.90;;;;;;4804399;29;20208;-75
2022/09/02 03:55:27;;;;;;;1.93;1.37;;;10.30;99.90;;;;;;4805686;29;20346;-76
2022/09/02 03:57:54;;;;;;;5.67;2.00;;;10.20;99.90;;;;;;4804823;29;20204;-75
2022/09/02 04:00:23;;;;;;;3.17;1.50;;;10.30;99.90;;;;;;4804550;29;20249;-74
2022/09/02 04:02:54;;;;;;;2.53;1.57;;;10.30;99.90;;;;;;4805626;29;20546;-74
2022/09/02 04:05:21;;;;;;;5.10;1.43;;;10.30;99.90;;;;;;4804118;29;20307;-77
2022/09/02 04:07:52;;;;;;;2.13;1.40;;;10.20;99.90;;;;;;4804385;29;20544;-75
2022/09/02 04:10:20;;;;;;;4.53;1.50;;;10.30;99.90;;;;;;4804680;29;20660;-77
2022/09/02 04:12:49;;;;;;;1.90;1.33;;;10.20;99.90;;;;;;4805300;29;20286;-74
2022/09/02 04:15:18;;;;;;;4.13;1.70;;;10.20;99.90;;;;;;4805363;29;20555;-74
2022/09/02 04:17:45;;;;;;;2.97;1.60;;;10.20;99.90;;;;;;4804465;29;20210;-76
2022/09/02 04:20:13;;;;;;;3.43;1.57;;;10.20;99.90;;;;;;4805367;29;20302;-77
2022/09/02 04:22:40;;;;;;;3.30;1.90;;;10.20;99.90;;;;;;4805206;29;20666;-74
2022/09/02 04:25:08;;;;;;;2.17;1.43;;;10.20;99.90;;;;;;4804373;29;20215;-74
2022/09/02 04:27:35;;;;;;;2.87;1.63;;;10.20;99.90;;;;;;4804505;29;20548;-74
2022/09/02 04:30:03;;;;;;;4.87;1.73;;;10.20;99.90;;;;;;4807682;29;20203;-74
2022/09/02 04:32:30;;;;;;;3.40;1.80;;;10.20;99.90;;;;;;4807142;29;20207;-75
2022/09/02 04:35:01;;;;;;;5.87;1.73;;;10.20;99.90;;;;;;4807345;29;20674;-76
2022/09/02 04:37:28;;;;;;;3.23;1.93;;;10.30;99.90;;;;;;4807489;29;20204;-74
2022/09/02 04:39:56;;;;;;;3.53;2.00;;;10.30;99.90;;;;;;4807298;29;20243;-75
2022/09/02 04:42:24;;;;;;;3.07;1.90;;;10.30;99.90;;;;;;4807389;29;20242;-77
2022/09/02 04:44:53;;;;;;;2.60;1.80;;;10.40;99.90;;;;;;4808332;29;20276;-74
2022/09/02 04:47:20;;;;;;;4.20;1.80;;;10.50;99.90;;;;;;4807159;29;20274;-73
2022/09/02 04:49:49;;;;;;;4.70;2.00;;;10.50;99.90;;;;;;4806860;29;20291;-75
2022/09/02 04:52:16;;;;;;;4.70;1.97;;;10.60;99.90;;;;;;4807248;29;20701;-76
2022/09/02 04:54:43;;;;;;;8.00;2.10;;;10.70;99.90;;;;;;4808591;29;20697;-76
2022/09/02 04:57:10;;;;;;;11.20;2.00;;;10.70;99.90;;;;;;4791884;29;20212;-76
2022/09/02 04:59:37;;;;;;;9.43;2.10;;;10.80;99.90;;;;;;4791856;29;20242;-77
2022/09/02 05:02:05;;;;;;;4.17;1.80;;;10.80;99.90;;;;;;4808241;29;20242;-74
2022/09/02 05:04:32;;;;;;;3.50;1.77;;;10.80;99.90;;;;;;4791967;29;20256;-75
2022/09/02 05:07:02;;;;;;;7.60;2.00;;;10.90;99.90;;;;;;4808333;29;20650;-74
2022/09/02 05:09:30;;;;;;;5.37;2.00;;;10.90;99.90;;;;;;4808293;29;20669;-77
2022/09/02 05:11:57;;;;;;;5.93;1.90;;;10.90;99.90;;;;;;4791807;29;20231;-76
2022/09/02 05:14:24;;;;;;;6.50;1.73;;;11.00;99.90;;;;;;4791653;29;20203;-77
2022/09/02 05:16:52;;;;;;;5.63;1.73;;;11.00;99.90;;;;;;4808052;29;20198;-77
2022/09/02 05:19:22;;;;;;;7.00;2.07;;;11.10;99.90;;;;;;4791831;29;20210;-77
2022/09/02 05:21:52;;;;;;;5.70;1.80;;;11.10;99.90;;;;;;4807727;29;20319;-74
2022/09/02 05:24:19;;;;;;;7.10;1.97;;;11.20;99.90;;;;;;4791536;29;20204;-76
2022/09/02 05:26:52;;;;;;;3.43;1.70;;;11.30;99.90;;;;;;4791432;29;20615;-76
2022/09/02 05:29:19;;;;;;;6.67;1.83;;;11.30;99.90;;;;;;4791303;29;20733;-75
2022/09/02 05:31:47;;;;;;;4.17;1.90;;;11.30;99.90;;;;;;4791154;29;20211;-75
2022/09/02 05:34:15;;;;;;;7.13;1.90;;;11.40;99.90;;;;;;4807518;29;20658;-78
2022/09/02 05:36:43;;;;;;;5.60;2.00;;;11.50;99.90;;;;;;4791504;29;20303;-78
2022/09/02 05:39:10;;;;;;;4.23;1.73;;;11.50;99.90;;;;;;4807509;29;20607;-77
2022/09/02 05:41:37;;;;;;;3.83;1.77;;;11.50;99.90;;;;;;4790779;29;20239;-77
2022/09/02 05:44:05;;;;;;;4.37;2.00;;;11.60;99.90;;;;;;4807421;29;20203;-77
2022/09/02 05:46:33;;;;;;;10.87;2.33;;;11.60;99.90;;;;;;4790869;29;20203;-74
2022/09/02 05:49:07;;;;;;;5.37;1.90;;;11.60;99.90;;;;;;4791269;29;20546;-73
2022/09/02 05:51:50;;;;;;;4.07;1.87;;;11.70;99.90;;;;;;4800109;29;20288;-73
2022/09/02 05:54:20;;;;;;;3.10;1.83;;;11.80;99.90;;;;;;4805910;29;20212;-76
2022/09/02 05:56:50;;;;;;;6.60;1.70;;;11.90;99.90;;;;;;4805960;29;20214;-75
2022/09/02 05:59:17;;;;;;;6.13;1.73;;;12.00;99.90;;;;;;4806200;29;20673;-76
2022/09/02 06:01:44;;;;;;;6.27;1.40;;;12.00;99.90;;;;;;4805689;29;20569;-73
2022/09/02 06:04:12;;;;;;;4.77;1.93;;;12.10;99.90;;;;;;4805753;29;20203;-73
2022/09/02 06:06:40;;;;;;;3.00;1.57;;;12.20;99.90;;;;;;4806290;29;20212;-76
2022/09/02 06:09:10;;;;;;;2.13;1.50;;;12.20;99.90;;;;;;4805610;29;20203;-72
2022/09/02 06:11:39;;;;;;;5.87;2.00;;;12.40;99.90;;;;;;4805826;29;20212;-76
2022/09/02 06:14:07;;;;;;;4.43;1.77;;;12.40;99.90;;;;;;4805497;29;20220;-74
2022/09/02 06:16:34;;;;;;;6.73;1.57;;;12.50;99.90;;;;;;4805711;29;20227;-78
2022/09/02 06:19:02;;;;;;;5.00;1.63;;;12.50;99.90;;;;;;4805769;29;20231;-77
2022/09/02 06:21:30;;;;;;;2.93;1.40;;;12.60;99.90;;;;;;4805370;29;20247;-76
2022/09/02 06:23:58;;;;;;;3.53;1.73;;;12.70;99.90;;;;;;4798441;29;20228;-73
2022/09/02 06:26:25;;;;;;;4.70;1.50;;;12.80;99.90;;;;;;4801907;29;20211;-76
2022/09/02 06:28:52;;;;;;;3.20;1.43;;;12.80;99.90;;;;;;4801748;29;20727;-79
2022/09/02 06:31:21;;;;;;;6.20;1.40;;;12.80;99.90;;;;;;4802689;29;20203;-74
2022/09/02 06:33:52;;;;;;;5.17;1.50;;;12.90;99.90;;;;;;4799999;29;20200;-75
2022/09/02 06:36:21;;;;;;;1.63;1.30;;;13.10;99.90;;;;;;4799148;29;20213;-76
2022/09/02 06:38:56;;;;;;;2.00;1.23;;;13.10;99.90;;;;;;4787331;30;20668;-75
2022/09/02 06:41:27;;;;;;;2.27;1.40;;;13.20;99.90;;;;;;4788435;29;20235;-77
2022/09/02 06:43:56;;;;;;;3.30;1.30;;;13.30;99.90;;;;;;4787160;30;20315;-77
2022/09/02 06:46:34;;;;;;;2.53;1.37;;;13.40;99.90;;;;;;4788238;29;20655;-76
2022/09/02 06:49:02;;;;;;;2.97;1.53;;;13.50;99.90;;;;;;4796364;29;20650;-76
2022/09/02 06:51:33;;;;;;;5.60;1.70;;;13.60;99.90;;;;;;4800864;29;20292;-76
2022/09/02 06:54:01;;;;;;;4.80;1.40;;;13.70;99.90;;;;;;4801838;29;20224;-76
2022/09/02 06:56:28;;;;;;;2.17;1.13;;;13.80;99.90;;;;;;4804423;29;20268;-79
2022/09/02 06:58:56;;;;;;;2.23;1.33;;;13.90;99.90;;;;;;4806039;29;20662;-79
2022/09/02 07:01:25;;;;;;;7.97;1.67;;;14.00;99.90;;;;;;4804475;29;20230;-77
2022/09/02 07:06:45;;;;;;;2.00;1.10;;;14.20;99.90;;;;;;4804590;29;20208;-77
2022/09/02 07:09:16;;;;;;;3.83;1.23;;;14.30;99.90;;;;;;4806208;29;20213;-76
2022/09/02 07:11:46;;;;;;;7.27;1.37;;;14.40;99.90;;;;;;4804780;29;20216;-76
2022/09/02 07:14:15;;;;;;;104.80;8.97;;;14.50;99.90;;;;;;4805116;29;20191;-77
2022/09/02 07:16:49;;;;;;;142.00;12.63;;;14.60;99.90;;;;;;4804535;29;20214;-78
2022/09/02 07:19:18;;;;;;;53.90;5.40;;;14.70;99.90;;;;;;4804317;29;20207;-76
2022/09/02 07:21:48;;;;;;;113.83;10.03;;;14.80;99.90;;;;;;4803428;29;20257;-75
2022/09/02 07:24:16;;;;;;;10.67;1.40;;;14.80;99.90;;;;;;4803161;29;20230;-76
2022/09/02 07:26:43;;;;;;;5.30;1.23;;;14.90;99.90;;;;;;4803575;29;20206;-76
2022/09/02 07:29:11;;;;;;;5.20;1.03;;;15.00;99.90;;;;;;4803378;29;20298;-76
2022/09/02 07:31:41;;;;;;;3.97;1.33;;;15.00;99.90;;;;;;4801907;29;20215;-74
2022/09/02 07:34:09;;;;;;;3.20;1.10;;;15.00;99.90;;;;;;4803885;29;20642;-70
2022/09/02 07:36:37;;;;;;;4.33;1.10;;;15.10;99.90;;;;;;4799246;29;20212;-75
2022/09/02 07:39:06;;;;;;;2.30;0.90;;;15.10;99.90;;;;;;4797688;29;20204;-76
2022/09/02 07:41:34;;;;;;;3.60;1.00;;;15.20;99.90;;;;;;4800253;29;20242;-76
2022/09/02 07:44:02;;;;;;;2.77;1.10;;;15.40;99.90;;;;;;4802120;29;20212;-72
2022/09/02 07:46:30;;;;;;;6.47;1.30;;;15.40;99.90;;;;;;4799695;29;20207;-76
2022/09/02 07:49:00;;;;;;;3.53;1.00;;;15.50;99.90;;;;;;4802857;29;20604;-73
2022/09/02 07:51:27;;;;;;;7.33;1.70;;;15.60;99.90;;;;;;4787430;29;20717;-74
2022/09/02 07:53:56;;;;;;;3.87;1.27;;;15.70;99.90;;;;;;4802601;29;20264;-77
2022/09/02 07:56:24;;;;;;;4.57;1.30;;;15.80;99.90;;;;;;4801236;29;20229;-75
2022/09/02 07:58:51;;;;;;;3.70;1.10;;;15.90;99.90;;;;;;4801357;29;20204;-75
2022/09/02 08:01:19;;;;;;;1.60;0.90;;;16.00;99.90;;;;;;4799874;29;20260;-74
2022/09/02 08:03:49;;;;;;;6.30;1.20;;;16.10;99.90;;;;;;4801739;29;20293;-78
2022/09/02 08:06:17;;;;;;;3.53;1.10;;;16.20;99.90;;;;;;4804726;29;20216;-76
2022/09/02 08:09:00;;;;;;;2.43;0.87;;;16.30;99.90;;;;;;4807893;29;20222;-77
2022/09/02 08:11:27;;;;;;;4.37;0.90;;;16.30;99.90;;;;;;4804465;29;20299;-77
2022/09/02 08:13:54;;;;;;;2.00;0.77;;;16.40;99.90;;;;;;4805810;29;20214;-73
2022/09/02 08:16:21;;;;;;;2.37;0.80;;;16.60;99.90;;;;;;4806683;29;20203;-76
2022/09/02 08:18:48;;;;;;;3.63;0.80;;;16.80;99.90;;;;;;4804055;29;20261;-77
2022/09/02 08:21:15;;;;;;;3.70;0.70;;;17.10;99.90;;;;;;4805994;29;20228;-76
2022/09/02 08:23:42;;;;;;;4.83;0.90;;;17.50;99.90;;;;;;4806703;29;20830;-75
2022/09/02 08:26:10;;;;;;;2.47;0.57;;;18.10;99.90;;;;;;4794054;29;20202;-73
2022/09/02 08:28:37;;;;;;;0.90;0.50;;;19.10;99.90;;;;;;4802167;29;20208;-77
2022/09/02 08:31:08;;;;;;;2.13;0.70;;;20.10;99.90;;;;;;4805291;29;20642;-76
2022/09/02 08:33:35;;;;;;;1.17;0.70;;;21.10;99.90;;;;;;4754347;30;20204;-75
2022/09/02 08:36:08;;;;;;;1.63;0.60;;;21.70;99.90;;;;;;4752598;30;20248;-77
2022/09/02 08:38:35;;;;;;;0.60;0.50;;;22.30;99.60;;;;;;4753174;30;20703;-76
2022/09/02 08:41:13;;;;;;;1.70;0.80;;;22.70;96.60;;;;;;4754285;30;20224;-75
2022/09/02 08:43:43;;;;;;;17.73;2.13;;;22.50;95.30;;;;;;4751354;30;20215;-76
2022/09/02 08:46:31;;;;;;;2.67;0.80;;;22.50;94.90;;;;;;4747672;30;20209;-78
2022/09/02 08:49:03;;;;;;;1.50;0.80;;;22.10;94.00;;;;;;4764470;30;20305;-74
2022/09/02 08:51:47;;;;;;;1.77;0.70;;;22.80;93.90;;;;;;4769957;29;20906;-73
2022/09/02 08:54:26;;;;;;;2.87;0.70;;;23.00;92.70;;;;;;4779604;29;20211;-75
2022/09/02 08:56:55;;;;;;;0.60;0.53;;;23.50;91.50;;;;;;4797887;29;20203;-74
2022/09/02 08:59:25;;;;;;;0.77;0.50;;;23.70;88.20;;;;;;4789384;29;20291;-76
2022/09/02 09:02:11;;;;;;;1.13;0.57;;;23.60;86.00;;;;;;4790693;29;20363;-76
2022/09/02 09:04:49;;;;;;;8.17;0.90;;;24.00;82.70;;;;;;4790842;29;20705;-78
2022/09/02 09:07:35;;;;;;;7.25;1.30;;;24.10;80.60;;;;;;4805913;29;20609;-74
2022/09/02 09:10:16;;;;;;;6.10;0.70;;;23.90;79.90;;;;;;4804021;29;20698;-78
2022/09/02 09:13:14;;;;;;;1.20;0.60;;;23.90;80.30;;;;;;4788758;29;20207;-78
2022/09/02 09:15:49;;;;;;;1.85;0.60;;;23.80;81.70;;;;;;4795520;29;20299;-73
2022/09/02 09:18:20;;;;;;;3.17;0.73;;;23.90;80.50;;;;;;4789209;29;20245;-75
2022/09/02 09:20:50;;;;;;;1.20;0.50;;;24.10;77.60;;;;;;4788074;29;20298;-75
2022/09/02 09:23:26;;;;;;;1.48;0.40;;;24.40;76.70;;;;;;4787060;29;20215;-72
2022/09/02 09:26:04;;;;;;;1.65;0.65;;;24.50;74.50;;;;;;4787510;29;20229;-73
2022/09/02 09:28:31;;;;;;;1.48;0.70;;;24.80;74.20;;;;;;4788691;29;20207;-74
2022/09/02 09:31:01;;;;;;;0.63;0.30;;;25.10;67.10;;;;;;4790572;29;20302;-75
2022/09/02 09:33:28;;;;;;;0.65;0.40;;;24.90;63.00;;;;;;4785840;29;20231;-75
2022/09/02 09:35:55;;;;;;;2.20;0.60;;;25.10;63.70;;;;;;4775541;29;20597;-76
2022/09/02 09:38:34;;;;;;;3.70;0.52;;;25.50;63.80;;;;;;4784680;29;20611;-67
2022/09/02 09:41:21;;;;;;;1.33;0.40;;;25.60;63.90;;;;;;4787991;29;20235;-77
2022/09/02 09:43:51;;;;;;;0.35;0.30;;;25.50;63.60;;;;;;4774472;29;20596;-72
2022/09/02 09:46:29;;;;;;;0.63;0.57;;;25.50;60.20;;;;;;4786357;29;20203;-72
2022/09/02 09:48:55;;;;;;;1.60;0.60;;;25.60;61.80;;;;;;4802572;29;20206;-73
2022/09/02 09:51:23;;;;;;;0.80;0.30;;;25.80;62.50;;;;;;4797712;29;20318;-73
2022/09/02 09:53:51;;;;;;;0.80;0.40;;;25.90;61.10;;;;;;4808880;29;20215;-76
2022/09/02 09:56:28;;;;;;;0.80;0.60;;;26.30;61.20;;;;;;4796798;29;20207;-72
2022/09/02 09:58:55;;;;;;;2.42;0.50;;;26.50;59.00;;;;;;4805510;29;20204;-75
2022/09/02 10:01:33;;;;;;;1.27;0.63;;;26.80;57.90;;;;;;4804106;29;20204;-74
2022/09/02 10:04:07;;;;;;;0.75;0.43;;;27.10;58.90;;;;;;4805301;29;20203;-73
2022/09/02 10:06:54;;;;;;;2.25;0.50;;;27.10;56.90;;;;;;4803685;29;20575;-73
2022/09/02 10:09:30;;;;;;;0.98;0.50;;;26.90;57.00;;;;;;4805213;29;20208;-73
2022/09/02 10:12:06;;;;;;;0.40;0.40;;;27.20;58.10;;;;;;4805518;29;20306;-74
2022/09/02 10:14:47;;;;;;;1.80;0.35;;;27.70;56.90;;;;;;4805289;29;20214;-74
2022/09/02 10:17:40;;;;;;;0.95;0.40;;;27.90;56.00;;;;;;4805785;29;20286;-73
2022/09/02 10:20:18;;;;;;;0.98;0.70;;;28.00;54.80;;;;;;4805175;29;20234;-72
2022/09/02 10:23:10;;;;;;;2.17;0.30;;;27.90;54.20;;;;;;4806190;29;20219;-72
2022/09/02 10:25:54;;;;;;;0.65;0.30;;;27.90;54.10;;;;;;4805127;29;20677;-73
2022/09/02 10:28:33;;;;;;;1.10;0.60;;;27.70;54.50;;;;;;4805084;29;20563;-74
2022/09/02 10:31:15;;;;;;;7.53;0.95;;;27.80;54.50;;;;;;4805226;29;20578;-73
2022/09/02 10:34:08;;;;;;;0.98;0.47;;;27.80;53.20;;;;;;4805411;29;20195;-75
2022/09/02 10:36:56;;;;;;;9.85;1.10;;;28.10;52.40;;;;;;4805186;29;20214;-76
2022/09/02 10:39:46;;;;;;;5.07;0.77;;;28.30;52.10;;;;;;4805164;29;20295;-80
2022/09/02 10:42:39;;;;;;;3.00;0.55;;;28.60;51.60;;;;;;4770851;30;20228;-74
2022/09/02 10:45:09;;;;;;;0.93;0.38;;;28.80;50.90;;;;;;4768354;30;20213;-75
2022/09/02 10:47:39;;;;;;;0.30;0.30;;;28.80;50.40;;;;;;4768632;30;20272;-75
2022/09/02 10:50:30;;;;;;;3.78;0.70;;;28.20;50.30;;;;;;4766414;30;20209;-79
2022/09/02 10:53:24;;;;;;;1.13;0.70;;;27.80;52.00;;;;;;4750620;30;20260;-84
2022/09/02 10:56:14;;;;;;;1.48;0.30;;;27.20;52.90;;;;;;4750383;30;20238;-85
2022/09/02 10:58:53;;;;;;;2.50;0.45;;;27.10;52.60;;;;;;4749923;30;20210;-87
2022/09/02 11:01:46;;;;;;;5.82;1.00;;;27.10;52.40;;;;;;4735650;30;20220;-83
2022/09/02 11:04:19;;;;;;;1.45;0.38;;;27.70;53.20;;;;;;4749781;30;20210;-80
2022/09/02 11:06:52;;;;;;;2.63;0.30;;;28.40;49.90;;;;;;4750405;30;20201;-76
2022/09/02 11:10:16;;;;;;;4.57;0.73;;;28.70;48.70;;;;;;4735426;30;20213;-80
2022/09/02 11:13:05;;;;;;;2.72;0.40;;;28.80;47.60;;;;;;4700721;30;20306;-75
2022/09/02 11:15:47;;;;;;;0.70;0.30;;;29.00;46.60;;;;;;4715273;30;20314;-74
2022/09/02 11:18:43;;;;;;;3.53;0.50;;;29.00;47.60;;;;;;4713076;30;20566;-76
2022/09/02 11:21:46;;;;;;;0.75;0.30;;;29.50;47.60;;;;;;4702627;30;20319;-76
2022/09/02 11:24:30;;;;;;;3.15;0.68;;;30.00;45.70;;;;;;4731796;30;20212;-67
2022/09/02 11:27:11;;;;;;;0.47;0.32;;;30.10;45.20;;;;;;4717751;30;20290;-72
2022/09/02 11:30:26;;;;;;;0.57;0.38;;;30.50;45.30;;;;;;4717594;30;20217;-75
2022/09/02 11:33:13;;;;;;;1.17;0.40;;;31.00;44.70;;;;;;4729260;30;20241;-74
2022/09/02 11:35:43;;;;;;;4.22;1.10;;;31.10;44.80;;;;;;4728474;30;20247;-72
2022/09/02 11:38:34;;;;;;;1.17;0.40;;;31.60;44.40;;;;;;4729325;30;20319;-73
2022/09/02 11:41:13;;;;;;;1.05;0.40;;;32.20;43.30;;;;;;4734547;30;20250;-74
2022/09/02 11:44:40;;;;;;;1.63;0.40;;;32.70;42.20;;;;;;4786241;30;20236;-76
2022/09/02 11:47:36;;;;;;;0.73;0.40;;;33.20;41.30;;;;;;4784410;29;20557;-75
2022/09/02 11:50:44;;;;;;;0.68;0.28;;;33.80;40.90;;;;;;4792930;29;20297;-75
2022/09/02 11:53:26;;;;;;;2.30;0.57;;;34.10;39.60;;;;;;4792669;29;20204;-75
2022/09/02 11:56:12;;;;;;;0.55;0.40;;;34.60;39.40;;;;;;4785496;29;20662;-74
2022/09/02 11:58:44;;;;;;;0.50;0.32;;;34.80;39.80;;;;;;4790580;29;20265;-73
2022/09/02 12:01:14;;;;;;;2.75;0.57;;;35.10;38.20;;;;;;4788483;29;20211;-75
2022/09/02 12:04:18;;;;;;;3.33;0.32;;;35.20;39.00;;;;;;4786476;29;20229;-75
2022/09/02 12:07:05;;;;;;;6.38;1.00;;;35.70;38.30;;;;;;4734240;30;20206;-73
2022/09/02 12:09:48;;;;;;;7.95;0.90;;;35.20;37.90;;;;;;4738240;30;20214;-77
2022/09/02 12:12:36;;;;;;;1.95;0.30;;;34.30;37.80;;;;;;4735371;30;20218;-77
2022/09/02 12:15:04;;;;;;;2.05;0.50;;;32.90;38.90;;;;;;4735497;30;20198;-76
2022/09/02 12:17:39;;;;;;;41.42;5.70;;;32.50;39.40;;;;;;4731848;30;20220;-75
2022/09/02 12:20:10;;;;;;;19.02;2.95;;;31.80;40.00;;;;;;4737745;30;20326;-74
2022/09/02 12:22:40;;;;;;;2.00;0.52;;;31.40;41.10;;;;;;4736433;30;20324;-74
2022/09/02 12:25:27;;;;;;;15.90;2.03;;;31.40;41.20;;;;;;4752793;30;20205;-74
2022/09/02 12:28:20;;;;;;;58.15;10.45;;;31.80;41.70;;;;;;4749592;30;20214;-75
2022/09/02 12:31:07;;;;;;;8.48;1.63;;;31.90;41.10;;;;;;4731031;30;20684;-74
2022/09/02 12:33:50;;;;;;;3.42;1.30;;;31.60;41.50;;;;;;4731468;30;20374;-73
2022/09/02 12:36:35;;;;;;;2.33;0.68;;;32.00;40.80;;;;;;4726568;30;20300;-77
2022/09/02 12:39:34;;;;;;;2.30;0.40;;;31.60;41.50;;;;;;4744252;30;20233;-73
2022/09/02 12:42:10;;;;;;;0.77;0.40;;;32.20;41.30;;;;;;4746562;29;20225;-70
2022/09/02 12:44:40;;;;;;;4.88;0.43;;;31.50;41.10;;;;;;4781351;29;20214;-71
2022/09/02 12:47:42;;;;;;;0.95;0.50;;;30.50;42.30;;;;;;4788500;29;20216;-73
2022/09/02 12:50:35;;;;;;;1.20;0.50;;;29.60;43.00;;;;;;4789341;29;20226;-73
2022/09/02 12:53:28;;;;;;;2.38;0.40;;;28.50;44.40;;;;;;4791174;29;20249;-73
2022/09/02 12:55:57;;;;;;;1.77;0.43;;;27.60;46.00;;;;;;4784542;29;20208;-73
2022/09/02 12:58:25;;;;;;;5.10;1.00;;;27.00;46.70;;;;;;4782550;29;20205;-74
2022/09/02 13:01:06;;;;;;;8.52;1.00;;;26.50;46.90;;;;;;4788128;30;20215;-75
2022/09/02 13:03:54;;;;;;;53.92;7.65;;;26.30;48.50;;;;;;4791498;29;20604;-74
2022/09/02 13:06:30;;;;;;;8.10;1.63;;;26.50;48.80;;;;;;4791533;29;20564;-72
2022/09/02 13:09:19;;;;;;;17.02;1.90;;;26.70;47.90;;;;;;4807793;29;20205;-73
2022/09/02 13:12:17;;;;;;;5.82;0.90;;;27.10;46.60;;;;;;4784780;29;20292;-71
2022/09/02 13:15:00;;;;;;;5.50;0.68;;;26.90;47.00;;;;;;4791543;29;20216;-73
2022/09/02 13:18:07;;;;;;;4.72;0.77;;;26.70;47.20;;;;;;4777207;29;20674;-75
2022/09/02 13:20:53;;;;;;;1.25;0.55;;;26.10;47.30;;;;;;4788715;29;20303;-78